Time;durP1;ratioP1;P1;durP2;ratioP2;P2;SDS_P1;SDS_P2;PMS_P1;PMS_P2;Temp;Humidity;BMP_temperature;BMP_pressure;BME280_temperature;BME280_humidity;BME280_pressure;Samples;Min_cycle;Max_cycle;Signal;HPM_P1;HPM_P2
2022/12/19 00:01:34;;;;;;;34.42;24.08;;;;;;;-0.66;76.47;100465.22;6067606;23;20231;-87
2022/12/19 00:04:03;;;;;;;48.47;30.98;;;;;;;-0.60;76.40;100451.44;6067272;23;20512;-87
2022/12/19 00:06:35;;;;;;;48.15;27.80;;;;;;;-0.55;76.56;100432.47;6067800;23;20247;-87
2022/12/19 00:09:06;;;;;;;42.60;23.70;;;;;;;-0.51;76.43;100426.47;6068336;23;20540;-89
2022/12/19 00:11:57;;;;;;;39.05;21.52;;;;;;;-0.49;76.43;100441.91;6067217;23;20208;-84
2022/12/19 00:14:57;;;;;;;37.20;25.20;;;;;;;-0.47;76.31;100435.88;6066505;23;20187;-85
2022/12/19 00:17:31;;;;;;;31.75;20.33;;;;;;;-0.43;76.25;100449.66;6066828;23;20208;-86
2022/12/19 00:20:05;;;;;;;33.80;22.58;;;;;;;-0.43;76.46;100436.75;6067433;23;20210;-86
2022/12/19 00:22:31;;;;;;;40.55;25.13;;;;;;;-0.40;76.29;100418.66;6066915;23;20179;-86
2022/12/19 00:24:56;;;;;;;32.60;21.50;;;;;;;-0.39;76.37;100432.41;6066110;23;20187;-88
2022/12/19 00:27:22;;;;;;;50.73;29.20;;;;;;;-0.46;77.00;100418.66;6064551;23;20322;-88
2022/12/19 00:29:50;;;;;;;37.40;22.60;;;;;;;-0.45;76.95;100433.31;6066096;23;20368;-87
2022/12/19 00:32:16;;;;;;;47.80;29.52;;;;;;;-0.50;77.41;100412.69;6066807;23;20173;-86
2022/12/19 00:34:41;;;;;;;47.27;34.03;;;;;;;-0.45;77.12;100420.41;6064396;23;20472;-86
2022/12/19 00:37:07;;;;;;;42.77;29.40;;;;;;;-0.46;77.74;100429.88;6081955;23;20208;-86
2022/12/19 00:39:33;;;;;;;38.80;26.60;;;;;;;-0.49;77.90;100403.22;6082293;23;20205;-87
2022/12/19 00:41:58;;;;;;;50.07;27.07;;;;;;;-0.43;77.68;100420.38;6052219;23;20276;-83
2022/12/19 00:44:24;;;;;;;40.93;25.03;;;;;;;-0.38;77.86;100418.63;6047298;23;20191;-83
2022/12/19 00:46:51;;;;;;;38.13;22.42;;;;;;;-0.34;77.68;100410.88;6056030;23;20548;-83
2022/12/19 00:49:16;;;;;;;37.40;21.70;;;;;;;-0.30;77.68;100433.22;6058641;23;20976;-82
2022/12/19 00:51:42;;;;;;;26.47;19.37;;;;;;;-0.25;77.53;100426.28;6059975;23;20192;-83
2022/12/19 00:54:09;;;;;;;39.27;22.30;;;;;;;-0.22;77.40;100425.41;6058703;23;20235;-83
2022/12/19 00:56:35;;;;;;;42.85;21.90;;;;;;;-0.19;77.07;100422.81;6057023;23;20869;-83
2022/12/19 00:59:01;;;;;;;32.10;22.00;;;;;;;-0.16;77.12;100415.06;6058975;23;20197;-83
2022/12/19 01:01:33;;;;;;;31.27;20.20;;;;;;;-0.14;77.17;100423.63;6058242;23;20514;-83
2022/12/19 01:03:59;;;;;;;31.48;22.08;;;;;;;-0.13;77.00;100430.53;6055211;23;20582;-82
2022/12/19 01:06:26;;;;;;;33.75;21.35;;;;;;;-0.09;76.80;100431.34;6058788;23;20166;-83
2022/12/19 01:08:52;;;;;;;34.65;21.90;;;;;;;-0.05;76.82;100420.16;6059055;23;20262;-83
2022/12/19 01:12:44;;;;;;;43.13;20.17;;;;;;;-0.01;76.85;100420.09;6057191;23;20208;-83
2022/12/19 01:14:09;;;;;;;31.25;17.80;;;;;;;0.03;76.59;100428.69;6064291;23;20899;-83
2022/12/19 01:16:34;;;;;;;28.83;20.02;;;;;;;0.07;76.51;100439.84;6056369;23;20445;-83
2022/12/19 01:19:00;;;;;;;29.17;18.90;;;;;;;0.11;76.65;100444.13;6058593;23;20576;-83
2022/12/19 01:21:25;;;;;;;32.50;21.07;;;;;;;0.15;76.40;100444.09;6056442;23;20200;-83
2022/12/19 01:23:51;;;;;;;41.37;21.83;;;;;;;0.15;76.56;100423.41;6057805;23;20180;-83
2022/12/19 01:26:17;;;;;;;30.00;19.08;;;;;;;0.20;76.52;100433.72;6056365;23;20191;-83
2022/12/19 01:28:42;;;;;;;34.77;21.17;;;;;;;0.21;76.79;100440.59;6057217;23;20188;-83
2022/12/19 01:31:08;;;;;;;36.13;20.20;;;;;;;0.20;76.92;100434.56;6058211;23;20705;-83
2022/12/19 01:33:33;;;;;;;46.00;24.47;;;;;;;0.20;76.82;100434.56;6059733;23;20250;-83
2022/12/19 01:36:06;;;;;;;42.03;20.97;;;;;;;0.21;76.93;100456.94;6057226;23;20587;-83
2022/12/19 01:38:33;;;;;;;36.80;21.17;;;;;;;0.19;77.09;100458.72;6057356;23;20236;-83
2022/12/19 01:41:00;;;;;;;34.03;21.48;;;;;;;0.21;77.11;100451.78;6058703;23;20208;-83
2022/12/19 01:43:29;;;;;;;37.60;20.03;;;;;;;0.21;77.07;100443.19;6058472;23;20187;-83
2022/12/19 01:46:04;;;;;;;37.92;21.60;;;;;;;0.22;77.07;100442.34;6058528;23;20179;-83
2022/12/19 01:48:41;;;;;;;39.70;21.73;;;;;;;0.21;77.27;100444.03;6032874;23;20176;-83
2022/12/19 01:51:13;;;;;;;32.35;19.95;;;;;;;0.25;77.14;100433.69;6058282;23;20204;-83
2022/12/19 01:53:49;;;;;;;38.78;21.45;;;;;;;0.28;77.33;100447.44;6058203;23;20715;-83
2022/12/19 01:56:21;;;;;;;31.75;19.85;;;;;;;0.30;77.24;100443.13;6058136;23;20179;-83
2022/12/19 01:58:50;;;;;;;32.65;18.88;;;;;;;0.34;77.42;100436.19;6058523;23;20202;-83
2022/12/19 02:01:17;;;;;;;35.25;20.45;;;;;;;0.33;77.21;100439.66;6057933;23;20284;-82
2022/12/19 02:03:44;;;;;;;44.05;24.15;;;;;;;0.33;77.54;100437.06;6058180;23;20939;-83
2022/12/19 02:06:12;;;;;;;39.22;20.40;;;;;;;0.35;77.54;100435.31;6032988;23;20909;-83
2022/12/19 02:08:40;;;;;;;41.35;20.80;;;;;;;0.37;77.51;100439.59;6032442;23;20169;-83
2022/12/19 02:11:05;;;;;;;34.53;19.40;;;;;;;0.39;77.68;100429.25;6033595;23;20230;-83
2022/12/19 02:13:31;;;;;;;32.27;20.00;;;;;;;0.40;77.54;100433.53;6033689;23;20187;-83
2022/12/19 02:16:12;;;;;;;30.67;20.80;;;;;;;0.42;77.55;100424.06;6032596;23;20903;-82
2022/12/19 02:19:11;;;;;;;35.15;20.73;;;;;;;0.42;77.53;100436.97;6032652;23;20507;-83
2022/12/19 02:22:00;;;;;;;27.45;18.15;;;;;;;0.42;77.61;100440.41;6057036;23;20208;-83
2022/12/19 02:24:53;;;;;;;32.53;19.52;;;;;;;0.45;77.48;100434.38;6033032;23;20482;-83
2022/12/19 02:27:28;;;;;;;39.17;20.77;;;;;;;0.46;77.44;100425.75;6033441;23;20185;-83
2022/12/19 02:30:25;;;;;;;30.95;19.33;;;;;;;0.49;77.43;100424.84;6033373;23;20199;-83
2022/12/19 02:33:44;;;;;;;35.53;19.58;;;;;;;0.54;77.42;100420.50;6033000;23;20256;-83
2022/12/19 02:36:23;;;;;;;44.58;31.55;;;;;;;0.59;77.71;100432.50;5980296;23;20460;-82
2022/12/19 02:39:33;;;;;;;32.42;22.77;;;;;;;0.61;78.14;100430.75;6057727;23;20697;-83
2022/12/19 02:42:01;;;;;;;33.15;19.52;;;;;;;0.64;78.03;100414.38;6047513;23;20294;-83
2022/12/19 02:44:38;;;;;;;28.20;19.90;;;;;;;0.64;77.93;100422.97;6067708;23;20489;-82
2022/12/19 02:47:05;;;;;;;33.90;21.23;;;;;;;0.66;77.90;100423.81;6066489;23;20552;-83
2022/12/19 02:49:34;;;;;;;30.38;19.73;;;;;;;0.68;77.93;100421.22;6088848;23;20204;-83
2022/12/19 02:52:19;;;;;;;31.55;18.70;;;;;;;0.66;77.67;100423.81;6064433;23;20331;-83
2022/12/19 02:54:54;;;;;;;34.67;20.90;;;;;;;0.66;78.00;100412.63;6064846;23;20185;-83
2022/12/19 02:57:27;;;;;;;31.30;17.63;;;;;;;0.64;77.86;100410.03;6064560;23;20180;-82
2022/12/19 02:59:53;;;;;;;30.42;19.63;;;;;;;0.66;78.11;100407.47;6064485;23;20264;-83
2022/12/19 03:02:46;;;;;;;30.43;20.00;;;;;;;0.66;78.13;100416.06;6066383;23;20185;-83
2022/12/19 03:05:14;;;;;;;34.22;22.17;;;;;;;0.68;78.33;100403.13;6063111;23;20184;-83
2022/12/19 03:08:14;;;;;;;32.67;22.60;;;;;;;0.69;78.16;100417.78;6088483;23;20177;-83
2022/12/19 03:10:56;;;;;;;39.08;22.58;;;;;;;0.71;78.49;100400.50;6054283;23;20215;-83
2022/12/19 03:13:41;;;;;;;36.47;22.67;;;;;;;0.75;78.32;100409.09;6066027;23;20179;-82
2022/12/19 03:16:08;;;;;;;31.13;20.15;;;;;;;0.78;78.43;100404.72;6067048;23;20183;-83
2022/12/19 03:18:35;;;;;;;37.03;22.83;;;;;;;0.83;78.25;100399.50;6069874;23;20197;-83
2022/12/19 03:21:22;;;;;;;36.35;22.00;;;;;;;0.87;78.10;100394.31;6068361;23;20220;-83
2022/12/19 03:23:49;;;;;;;31.80;20.50;;;;;;;0.92;77.91;100401.13;6070534;23;20185;-83
2022/12/19 03:26:18;;;;;;;39.38;19.83;;;;;;;0.96;78.07;100384.72;6069935;23;20169;-82
2022/12/19 03:28:49;;;;;;;30.20;18.35;;;;;;;0.97;77.85;100379.50;6070346;23;20177;-83
2022/12/19 03:31:17;;;;;;;31.05;19.65;;;;;;;0.98;77.83;100363.13;6067925;23;20276;-82
2022/12/19 03:33:47;;;;;;;41.30;23.63;;;;;;;0.97;78.09;100371.75;6068949;23;20449;-82
2022/12/19 03:36:23;;;;;;;34.33;19.98;;;;;;;0.99;78.00;100356.22;6067047;23;20185;-83
2022/12/19 03:38:48;;;;;;;29.15;19.65;;;;;;;0.95;78.26;100355.41;6067064;23;20497;-83
2022/12/19 03:43:07;;;;;;;37.37;20.13;;;;;;;0.93;78.30;100380.44;6067230;23;20220;-82
2022/12/19 03:44:06;;;;;;;41.67;21.98;;;;;;;0.90;78.75;100379.63;6067723;23;20474;-82
2022/12/19 03:46:37;;;;;;;34.92;19.67;;;;;;;0.89;78.77;100368.41;6068321;23;20189;-82
2022/12/19 03:49:03;;;;;;;36.03;21.20;;;;;;;0.83;79.17;100356.41;6067875;23;20520;-82
2022/12/19 03:51:57;;;;;;;33.50;20.37;;;;;;;0.87;78.80;100350.34;6068154;23;20208;-82
2022/12/19 03:54:29;;;;;;;29.58;18.90;;;;;;;0.87;78.98;100359.81;6068143;23;20419;-82
2022/12/19 03:56:55;;;;;;;35.17;21.48;;;;;;;0.91;79.07;100358.91;6067428;23;20185;-84
2022/12/19 03:59:33;;;;;;;35.17;19.60;;;;;;;0.94;79.15;100351.09;6042934;23;20211;-82
2022/12/19 04:02:01;;;;;;;32.15;21.08;;;;;;;0.96;79.11;100345.91;6066054;23;20613;-82
2022/12/19 04:04:29;;;;;;;28.85;19.75;;;;;;;1.01;79.06;100365.69;6035238;23;20177;-82
2022/12/19 04:06:56;;;;;;;30.83;20.58;;;;;;;1.04;79.06;100354.44;6061950;23;20183;-82
2022/12/19 04:09:24;;;;;;;33.33;19.17;;;;;;;1.07;78.92;100360.41;6066705;23;20311;-81
2022/12/19 04:12:03;;;;;;;33.53;22.02;;;;;;;1.12;78.85;100364.69;6060300;23;20201;-82
2022/12/19 04:14:35;;;;;;;37.08;20.80;;;;;;;1.17;78.84;100361.16;6060423;23;20377;-81
2022/12/19 04:17:39;;;;;;;32.67;20.15;;;;;;;1.23;78.66;100357.63;6059274;23;20197;-82
2022/12/19 04:20:12;;;;;;;33.85;19.27;;;;;;;1.27;78.48;100359.28;6047972;23;20650;-82
2022/12/19 04:22:51;;;;;;;29.00;17.70;;;;;;;1.27;78.51;100365.34;6058772;23;20640;-82
2022/12/19 04:25:22;;;;;;;33.05;19.73;;;;;;;1.28;78.57;100371.38;6062413;23;20319;-82
2022/12/19 04:27:52;;;;;;;37.40;22.50;;;;;;;1.30;78.32;100373.06;6033872;23;20207;-81
2022/12/19 04:30:18;;;;;;;34.42;20.27;;;;;;;1.33;78.56;100365.25;6059133;23;20185;-82
2022/12/19 04:32:45;;;;;;;32.57;18.60;;;;;;;1.37;78.49;100362.63;6058757;23;20238;-82
2022/12/19 04:35:11;;;;;;;32.45;19.42;;;;;;;1.39;78.27;100366.06;6058810;23;20716;-81
2022/12/19 04:37:37;;;;;;;40.97;21.20;;;;;;;1.41;78.41;100366.91;6058680;23;20177;-82
2022/12/19 04:40:03;;;;;;;37.47;22.67;;;;;;;1.42;78.23;100369.44;6058803;23;20220;-82
2022/12/19 04:42:29;;;;;;;39.08;20.98;;;;;;;1.44;78.30;100375.47;6096556;23;20232;-82
2022/12/19 04:44:54;;;;;;;46.53;23.77;;;;;;;1.41;78.64;100344.44;6116829;23;20264;-82
2022/12/19 04:47:20;;;;;;;28.70;18.47;;;;;;;1.45;78.62;100384.94;6139330;23;20566;-83
2022/12/19 04:49:45;;;;;;;38.63;23.43;;;;;;;1.39;78.83;100360.88;6116791;23;20180;-82
2022/12/19 04:52:10;;;;;;;33.40;20.43;;;;;;;1.45;78.72;100379.75;6124545;23;20219;-82
2022/12/19 04:54:36;;;;;;;43.40;24.10;;;;;;;1.43;79.13;100367.72;6116583;23;20266;-82
2022/12/19 04:57:02;;;;;;;36.27;24.10;;;;;;;1.45;78.53;100359.03;6116455;23;20188;-82
2022/12/19 04:59:27;;;;;;;36.97;19.10;;;;;;;1.48;78.47;100363.31;6116747;23;20215;-82
2022/12/19 05:01:52;;;;;;;38.87;20.57;;;;;;;1.48;78.85;100364.16;6119944;23;20376;-82
2022/12/19 05:04:18;;;;;;;43.07;20.27;;;;;;;1.51;78.66;100361.56;6120900;23;20487;-82
2022/12/19 05:06:43;;;;;;;33.43;20.43;;;;;;;1.54;78.42;100371.88;6119897;23;20174;-82
2022/12/19 05:09:10;;;;;;;40.37;23.20;;;;;;;1.55;78.64;100365.81;6120439;23;20170;-82
2022/12/19 05:11:36;;;;;;;33.15;20.35;;;;;;;1.60;78.60;100370.06;6120894;23;20248;-82
2022/12/19 05:14:01;;;;;;;37.83;20.20;;;;;;;1.62;78.71;100366.59;6121236;23;20182;-82
2022/12/19 05:16:27;;;;;;;36.17;21.10;;;;;;;1.64;78.62;100351.00;6120717;23;20183;-82
2022/12/19 05:18:53;;;;;;;45.37;21.23;;;;;;;1.66;78.52;100357.03;6120771;23;20263;-82
2022/12/19 05:21:20;;;;;;;44.25;22.83;;;;;;;1.65;78.34;100356.19;6120508;23;20196;-82
2022/12/19 05:23:45;;;;;;;33.63;18.58;;;;;;;1.67;78.62;100356.13;6121010;23;20183;-82
2022/12/19 05:26:12;;;;;;;32.67;18.47;;;;;;;1.68;78.30;100347.50;6120945;23;20194;-81
2022/12/19 05:28:37;;;;;;;31.98;18.50;;;;;;;1.66;78.36;100342.34;6119044;23;20175;-82
2022/12/19 05:31:11;;;;;;;33.10;19.57;;;;;;;1.66;78.40;100346.66;6120118;23;20721;-82
2022/12/19 05:33:38;;;;;;;31.40;17.90;;;;;;;1.68;78.66;100347.50;6143840;23;20237;-81
2022/12/19 05:36:04;;;;;;;32.28;21.75;;;;;;;1.68;78.50;100340.59;6141667;23;20216;-81
2022/12/19 05:38:29;;;;;;;37.58;21.52;;;;;;;1.68;78.57;100339.75;6118649;23;20205;-81
2022/12/19 05:40:55;;;;;;;35.63;20.27;;;;;;;1.67;78.74;100330.25;6118765;23;20238;-82
2022/12/19 05:43:20;;;;;;;32.10;17.80;;;;;;;1.68;78.21;100332.81;6119518;23;20179;-82
2022/12/19 05:45:46;;;;;;;30.50;19.57;;;;;;;1.68;78.73;100329.38;6119927;23;20214;-82
2022/12/19 05:48:12;;;;;;;34.33;18.93;;;;;;;1.69;78.72;100341.44;6119495;23;20178;-81
2022/12/19 05:50:38;;;;;;;29.70;19.93;;;;;;;1.71;78.46;100331.91;6119198;23;20523;-82
2022/12/19 05:53:08;;;;;;;28.90;19.95;;;;;;;1.70;78.81;100336.25;6119307;23;20410;-81
2022/12/19 05:55:33;;;;;;;34.00;20.33;;;;;;;1.72;78.64;100337.06;6119398;23;20237;-81
2022/12/19 05:57:58;;;;;;;29.33;19.03;;;;;;;1.74;78.55;100334.47;6120139;23;20358;-81
2022/12/19 06:00:24;;;;;;;40.33;20.87;;;;;;;1.74;78.80;100322.34;6119858;23;20203;-81
2022/12/19 06:02:49;;;;;;;32.80;18.40;;;;;;;1.76;78.92;100322.34;6120208;23;20179;-81
2022/12/19 06:05:15;;;;;;;28.43;19.43;;;;;;;1.76;78.84;100324.94;6120395;23;20187;-81
2022/12/19 06:07:41;;;;;;;32.92;20.88;;;;;;;1.77;78.82;100319.72;6118426;23;20270;-81
2022/12/19 06:10:06;;;;;;;33.20;20.43;;;;;;;1.79;78.61;100327.47;6119974;23;20218;-81
2022/12/19 06:12:32;;;;;;;30.50;20.07;;;;;;;1.79;78.63;100321.44;6120011;23;20196;-81
2022/12/19 06:14:57;;;;;;;35.03;23.00;;;;;;;1.79;78.73;100317.13;6120448;23;20175;-81
2022/12/19 06:17:23;;;;;;;32.00;21.87;;;;;;;1.79;78.58;100319.72;6120745;23;20267;-81
2022/12/19 06:19:48;;;;;;;33.60;20.80;;;;;;;1.80;78.58;100312.78;6122373;23;20530;-81
2022/12/19 06:22:13;;;;;;;40.90;20.87;;;;;;;1.81;78.85;100317.94;6122000;23;20191;-81
2022/12/19 06:24:39;;;;;;;33.20;21.03;;;;;;;1.83;78.60;100315.31;6122868;23;20810;-81
2022/12/19 06:27:04;;;;;;;36.63;21.73;;;;;;;1.82;78.64;100317.06;6122375;23;20258;-81
2022/12/19 06:29:29;;;;;;;34.90;20.93;;;;;;;1.83;78.50;100307.53;6124044;23;20510;-81
2022/12/19 06:31:55;;;;;;;38.07;24.20;;;;;;;1.82;78.42;100306.69;6122590;23;20198;-81
2022/12/19 06:34:21;;;;;;;42.80;30.80;;;;;;;1.85;78.60;100308.38;6120878;23;20453;-82
2022/12/19 06:36:46;;;;;;;42.37;24.23;;;;;;;1.86;78.83;100310.09;6120339;23;20266;-82
2022/12/19 06:39:13;;;;;;;40.27;23.73;;;;;;;1.86;78.97;100317.84;6119410;23;20492;-82
2022/12/19 06:44:23;;;;;;;36.10;20.77;;;;;;;1.84;78.87;100307.53;6120785;23;20235;-81
2022/12/19 06:46:48;;;;;;;36.40;24.80;;;;;;;1.84;78.77;100304.94;6119673;23;20183;-82
2022/12/19 06:49:13;;;;;;;38.40;22.90;;;;;;;1.85;78.70;100304.06;6119336;23;20375;-82
2022/12/19 06:51:39;;;;;;;32.73;20.90;;;;;;;1.84;78.76;100302.34;6119870;23;20195;-81
2022/12/19 06:54:04;;;;;;;39.50;23.80;;;;;;;1.84;78.63;100299.75;6120168;23;20311;-81
2022/12/19 06:56:35;;;;;;;42.87;23.13;;;;;;;1.84;78.68;100304.94;6120375;23;20377;-82
2022/12/19 06:59:00;;;;;;;32.13;20.77;;;;;;;1.85;78.74;100303.19;6119804;23;20256;-81
2022/12/19 07:01:51;;;;;;;32.33;23.30;;;;;;;1.84;78.82;100310.13;6119204;23;20256;-82
2022/12/19 07:04:25;;;;;;;39.40;27.60;;;;;;;1.88;78.78;100313.50;6119533;23;20413;-81
2022/12/19 07:06:50;;;;;;;39.22;24.52;;;;;;;1.88;79.05;100313.50;6120369;23;20181;-82
2022/12/19 07:09:16;;;;;;;29.47;20.60;;;;;;;1.88;78.82;100327.31;6120239;23;20413;-81
2022/12/19 07:11:42;;;;;;;34.80;21.63;;;;;;;1.90;79.03;100332.47;6119479;23;20801;-82
2022/12/19 07:14:07;;;;;;;39.30;23.10;;;;;;;1.90;79.01;100324.72;6119107;23;20244;-82
2022/12/19 07:16:32;;;;;;;34.23;21.60;;;;;;;1.91;78.99;100331.59;6119904;23;20186;-81
2022/12/19 07:18:58;;;;;;;36.43;22.30;;;;;;;1.88;79.15;100335.09;6119233;23;20658;-81
2022/12/19 07:21:24;;;;;;;35.57;22.47;;;;;;;1.87;79.20;100346.34;6119234;23;20214;-81
2022/12/19 07:23:49;;;;;;;39.27;24.27;;;;;;;1.87;78.77;100356.69;6119402;23;20540;-82
2022/12/19 07:26:15;;;;;;;41.20;22.10;;;;;;;1.88;78.83;100352.38;6116937;23;20183;-82
2022/12/19 07:28:43;;;;;;;56.43;26.63;;;;;;;1.89;78.79;100354.94;6118820;23;20224;-82
2022/12/19 07:31:08;;;;;;;37.55;21.75;;;;;;;1.88;78.82;100366.16;6117935;23;20206;-82
2022/12/19 07:33:34;;;;;;;28.70;19.57;;;;;;;1.88;78.88;100363.56;6119085;23;20222;-82
2022/12/19 07:35:59;;;;;;;44.07;24.20;;;;;;;1.87;79.17;100369.66;6119704;23;20502;-82
2022/12/19 07:38:25;;;;;;;34.67;22.30;;;;;;;1.86;78.97;100373.09;6118663;23;20206;-82
2022/12/19 07:40:50;;;;;;;42.93;20.63;;;;;;;1.84;78.77;100372.28;6117726;23;20211;-81
2022/12/19 07:43:16;;;;;;;42.67;22.80;;;;;;;1.84;78.78;100380.06;6118509;23;20270;-81
2022/12/19 07:45:42;;;;;;;39.30;21.33;;;;;;;1.86;79.05;100390.38;6118793;23;20179;-82
2022/12/19 07:48:07;;;;;;;29.07;18.87;;;;;;;1.87;79.25;100386.94;6118358;23;20852;-81
2022/12/19 07:50:33;;;;;;;34.43;21.63;;;;;;;1.88;78.80;100379.13;6118445;23;20670;-82
2022/12/19 07:52:59;;;;;;;36.47;24.00;;;;;;;1.91;78.99;100381.66;6118616;23;20516;-82
2022/12/19 07:55:25;;;;;;;32.83;20.40;;;;;;;1.93;78.61;100382.50;6117614;23;20415;-82
2022/12/19 07:57:51;;;;;;;45.67;25.20;;;;;;;1.96;78.71;100390.22;6118196;23;20179;-82
2022/12/19 08:00:17;;;;;;;42.27;27.83;;;;;;;2.01;79.05;100379.78;6117463;23;20180;-82
2022/12/19 08:02:43;;;;;;;49.35;31.70;;;;;;;2.05;78.70;100383.19;6116997;23;20496;-82
2022/12/19 08:05:08;;;;;;;39.30;24.43;;;;;;;2.04;78.99;100390.09;6118297;23;20175;-81
2022/12/19 08:07:34;;;;;;;33.47;24.23;;;;;;;2.03;78.82;100393.59;6118797;23;20649;-81
2022/12/19 08:09:59;;;;;;;41.50;23.63;;;;;;;2.06;79.01;100395.28;6118333;23;20399;-81
2022/12/19 08:12:25;;;;;;;34.27;23.60;;;;;;;2.11;78.73;100380.50;6118002;23;20194;-81
2022/12/19 08:14:51;;;;;;;35.88;24.13;;;;;;;2.18;79.25;100387.28;6118668;23;20539;-81
2022/12/19 08:17:17;;;;;;;39.07;22.17;;;;;;;2.23;78.78;100388.06;6117958;23;20500;-81
2022/12/19 08:19:42;;;;;;;33.90;22.87;;;;;;;2.28;78.31;100375.03;6118043;23;20182;-81
2022/12/19 08:22:07;;;;;;;36.37;20.10;;;;;;;2.30;78.51;100383.66;6117839;23;20202;-82
2022/12/19 08:24:33;;;;;;;31.03;20.37;;;;;;;2.32;78.31;100387.91;6117892;23;20488;-82
2022/12/19 08:26:58;;;;;;;39.00;21.90;;;;;;;2.36;78.47;100381.78;6127001;23;20272;-80
2022/12/19 08:29:24;;;;;;;25.20;19.37;;;;;;;2.38;78.01;100382.63;6146266;23;20692;-80
2022/12/19 08:31:50;;;;;;;31.60;19.17;;;;;;;2.43;77.98;100378.22;6146121;23;20286;-80
2022/12/19 08:34:15;;;;;;;43.67;26.48;;;;;;;2.50;77.84;100373.75;6145339;23;20585;-79
2022/12/19 08:36:40;;;;;;;35.60;23.20;;;;;;;2.59;78.17;100381.38;6146230;23;20568;-80
2022/12/19 08:39:06;;;;;;;39.47;21.90;;;;;;;2.67;77.86;100376.03;6145702;23;20213;-80
2022/12/19 08:41:31;;;;;;;37.57;19.90;;;;;;;2.72;77.67;100374.19;6145535;23;20185;-79
2022/12/19 08:43:57;;;;;;;36.37;22.13;;;;;;;2.78;77.95;100370.63;6145668;23;20174;-79
2022/12/19 08:46:22;;;;;;;36.20;20.63;;;;;;;2.81;77.73;100361.06;6154053;23;20189;-82
2022/12/19 08:48:48;;;;;;;41.20;21.00;;;;;;;2.85;77.53;100348.88;6163064;23;20228;-82
2022/12/19 08:51:15;;;;;;;38.97;22.73;;;;;;;2.91;77.58;100338.38;6163955;23;20254;-82
2022/12/19 08:53:43;;;;;;;30.58;19.63;;;;;;;2.97;77.23;100337.38;6164140;23;20175;-82
2022/12/19 08:56:19;;;;;;;32.40;19.05;;;;;;;3.08;77.00;100338.03;6162824;23;20179;-84
2022/12/19 08:58:45;;;;;;;36.47;23.98;;;;;;;3.20;77.01;100348.16;6162453;23;20197;-82
2022/12/19 09:01:15;;;;;;;47.20;23.48;;;;;;;3.32;76.86;100347.91;6163408;23;20194;-83
2022/12/19 09:03:41;;;;;;;30.52;20.60;;;;;;;3.44;76.27;100354.53;6162835;23;20227;-84
2022/12/19 09:06:09;;;;;;;40.30;19.63;;;;;;;3.59;76.15;100352.47;6162866;23;20177;-83
2022/12/19 09:08:36;;;;;;;34.70;19.08;;;;;;;3.81;75.34;100351.09;6137052;23;20412;-82
2022/12/19 09:11:10;;;;;;;28.33;20.20;;;;;;;3.93;75.10;100353.41;6162382;23;20194;-83
2022/12/19 09:13:37;;;;;;;35.53;21.75;;;;;;;3.91;74.74;100349.97;6162650;23;20178;-83
2022/12/19 09:16:15;;;;;;;33.38;21.55;;;;;;;3.86;74.75;100358.78;6160856;23;20179;-83
2022/12/19 09:18:43;;;;;;;51.20;25.63;;;;;;;3.79;74.61;100352.88;6163601;23;20589;-84
2022/12/19 09:21:09;;;;;;;43.08;28.00;;;;;;;3.75;74.85;100351.22;6164760;23;20244;-82
2022/12/19 09:23:35;;;;;;;74.73;39.07;;;;;;;3.74;75.11;100358.19;6165381;23;20170;-82
2022/12/19 09:26:06;;;;;;;63.00;39.65;;;;;;;3.72;75.31;100349.56;6165667;23;20171;-82
2022/12/19 09:28:32;;;;;;;35.05;24.60;;;;;;;3.72;75.16;100336.56;6165676;23;20170;-84
2022/12/19 09:31:07;;;;;;;39.50;24.63;;;;;;;3.73;74.98;100330.50;6164634;23;20193;-83
2022/12/19 09:33:34;;;;;;;38.08;25.65;;;;;;;3.75;75.28;100335.63;6165861;23;20171;-82
2022/12/19 09:36:00;;;;;;;39.95;25.20;;;;;;;3.76;75.12;100339.97;6166375;23;20232;-82
2022/12/19 09:38:28;;;;;;;41.85;26.50;;;;;;;3.79;75.29;100339.03;6164844;23;20188;-84
2022/12/19 09:40:59;;;;;;;38.17;24.88;;;;;;;3.77;74.75;100336.47;6165587;23;20473;-84
2022/12/19 09:43:31;;;;;;;41.97;25.55;;;;;;;3.75;74.69;100320.94;6165798;23;20182;-82
2022/12/19 09:46:10;;;;;;;48.17;30.80;;;;;;;3.75;74.92;100317.44;6163635;23;20180;-83
2022/12/19 09:48:39;;;;;;;50.90;29.30;;;;;;;3.75;75.06;100325.25;6163641;23;20168;-82
2022/12/19 09:51:40;;;;;;;57.08;30.02;;;;;;;3.74;75.03;100329.59;6150970;23;20226;-84
2022/12/19 09:54:25;;;;;;;41.67;27.52;;;;;;;3.75;74.83;100320.94;6032289;23;20405;-82
2022/12/19 09:56:57;;;;;;;44.92;29.75;;;;;;;3.78;74.74;100322.59;6048696;23;20214;-81
2022/12/19 09:59:28;;;;;;;50.65;30.98;;;;;;;3.86;74.78;100312.88;6023505;23;20261;-80
2022/12/19 10:02:18;;;;;;;42.65;25.23;;;;;;;4.12;74.50;100308.75;6068170;23;20213;-82
2022/12/19 10:04:50;;;;;;;42.97;23.98;;;;;;;4.87;72.22;100311.91;6075719;23;20150;-81
2022/12/19 10:07:17;;;;;;;33.65;22.50;;;;;;;5.66;69.54;100305.16;6076961;23;20309;-82
2022/12/19 10:09:43;;;;;;;37.13;21.30;;;;;;;6.40;67.69;100300.94;6075951;23;20179;-82
2022/12/19 10:12:57;;;;;;;34.17;20.90;;;;;;;7.06;65.38;100298.53;6048945;23;20200;-81
2022/12/19 10:15:56;;;;;;;31.10;18.58;;;;;;;7.38;64.05;100301.66;6067213;23;20716;-84
2022/12/19 10:18:55;;;;;;;33.80;18.65;;;;;;;7.45;64.05;100290.03;6075186;23;20682;-83
2022/12/19 10:21:35;;;;;;;24.50;18.42;;;;;;;7.38;63.39;100291.22;6027660;23;20197;-82
2022/12/19 10:24:29;;;;;;;39.13;19.10;;;;;;;7.20;64.47;100280.53;6075317;23;20187;-81
2022/12/19 10:27:12;;;;;;;35.22;23.17;;;;;;;6.94;65.06;100271.13;6075532;23;20189;-82
2022/12/19 10:30:00;;;;;;;38.95;21.77;;;;;;;6.58;65.94;100274.16;6075268;23;20188;-81
2022/12/19 10:32:55;;;;;;;31.90;21.17;;;;;;;6.30;66.89;100269.09;6074908;23;20428;-82
2022/12/19 10:35:22;;;;;;;39.03;24.93;;;;;;;6.05;67.55;100276.94;6074355;23;20445;-82
2022/12/19 10:38:10;;;;;;;34.75;23.63;;;;;;;5.79;68.28;100276.94;6075149;23;20405;-83
2022/12/19 10:40:46;;;;;;;28.45;19.60;;;;;;;5.60;68.77;100284.50;6032472;23;20217;-83
2022/12/19 10:43:15;;;;;;;38.88;20.73;;;;;;;5.49;69.70;100282.25;6074952;23;20208;-83
2022/12/19 10:45:51;;;;;;;31.52;20.30;;;;;;;5.46;69.32;100267.56;6074645;23;20188;-81
2022/12/19 10:48:21;;;;;;;28.95;18.92;;;;;;;5.47;69.63;100277.06;6073675;23;20184;-81
2022/12/19 10:50:47;;;;;;;28.08;21.30;;;;;;;5.42;69.63;100252.06;6014283;23;20248;-82
2022/12/19 10:53:14;;;;;;;32.03;19.27;;;;;;;5.45;69.58;100246.75;6017093;23;20285;-81
2022/12/19 10:55:46;;;;;;;30.38;18.92;;;;;;;5.44;69.66;100243.28;6017466;23;20190;-82
2022/12/19 10:58:22;;;;;;;30.35;20.20;;;;;;;5.41;69.47;100229.53;6018113;23;20203;-83
2022/12/19 11:01:00;;;;;;;27.02;18.98;;;;;;;5.34;70.18;100260.13;6018107;23;20198;-83
2022/12/19 11:03:26;;;;;;;24.48;18.00;;;;;;;5.22;70.12;100234.47;6016687;23;20186;-81
2022/12/19 11:05:56;;;;;;;29.20;18.90;;;;;;;5.16;70.58;100255.47;6019018;23;20248;-81
2022/12/19 11:08:34;;;;;;;42.10;25.27;;;;;;;5.05;70.63;100217.63;6020189;23;20176;-82
2022/12/19 11:11:02;;;;;;;27.48;23.15;;;;;;;4.99;70.74;100229.97;6020852;23;20241;-81
2022/12/19 11:13:47;;;;;;;37.15;23.80;;;;;;;4.94;71.27;100224.03;6021547;23;20269;-82
2022/12/19 11:16:21;;;;;;;34.65;22.60;;;;;;;4.90;71.44;100212.88;6013027;23;20190;-82
2022/12/19 11:18:47;;;;;;;29.75;18.05;;;;;;;4.84;72.03;100194.84;6001530;23;20258;-79
2022/12/19 11:21:30;;;;;;;36.17;24.80;;;;;;;4.82;72.26;100218.31;6001557;23;20244;-81
2022/12/19 11:24:02;;;;;;;35.00;21.55;;;;;;;4.82;72.20;100214.88;6001715;23;20261;-79
2022/12/19 11:26:49;;;;;;;34.25;24.17;;;;;;;4.84;72.33;100224.34;6001423;23;20183;-80
2022/12/19 11:29:47;;;;;;;35.05;23.48;;;;;;;4.79;72.98;100210.59;6000888;23;20321;-80
2022/12/19 11:32:35;;;;;;;39.42;23.20;;;;;;;4.81;72.67;100226.19;6001740;23;20265;-80
2022/12/19 11:35:04;;;;;;;37.95;24.88;;;;;;;4.80;73.25;100209.69;5977422;23;20186;-79
2022/12/19 11:37:36;;;;;;;34.90;22.33;;;;;;;4.86;73.11;100193.91;6001486;23;20185;-83